createdAt,value
2023-08-21T00:01:57.223Z,13.27
2023-08-21T00:04:58.933Z,13.65
2023-08-21T00:08:00.647Z,13.82
2023-08-21T00:11:02.384Z,12.95
2023-08-21T00:14:04.307Z,13.48
2023-08-21T00:17:06.169Z,13.23
2023-08-21T00:20:10.461Z,13.88
2023-08-21T00:23:12.236Z,13.13
2023-08-21T00:26:14.085Z,13.38
2023-08-21T00:29:15.826Z,13.43
2023-08-21T00:32:17.777Z,12.25
2023-08-21T00:35:19.509Z,12.68
2023-08-21T00:38:21.403Z,13.40
2023-08-21T00:41:23.190Z,12.80
2023-08-21T00:44:24.878Z,12.75
2023-08-21T00:47:26.594Z,12.85
2023-08-21T00:50:28.386Z,14.02
2023-08-21T00:53:30.286Z,13.40
2023-08-21T00:56:32.445Z,13.68
2023-08-21T00:59:34.611Z,13.30
2023-08-21T01:02:36.715Z,14.00
2023-08-21T01:05:39.225Z,14.43
2023-08-21T01:09:13.527Z,13.48
2023-08-21T01:12:55.271Z,13.98
2023-08-21T01:15:58.198Z,14.48
2023-08-21T01:19:02.353Z,15.23
2023-08-21T01:22:04.639Z,14.90
2023-08-21T01:25:06.984Z,15.63
2023-08-21T01:28:08.805Z,15.40
2023-08-21T01:31:21.473Z,15.32
2023-08-21T01:34:24.077Z,15.20
2023-08-21T01:37:27.637Z,14.90
2023-08-21T01:40:29.513Z,15.00
2023-08-21T01:43:31.574Z,15.63
2023-08-21T01:46:33.399Z,15.60
2023-08-21T01:49:35.169Z,14.05
2023-08-21T01:52:37.335Z,14.77
2023-08-21T01:55:39.494Z,14.10
2023-08-21T01:58:41.267Z,13.93
2023-08-21T02:01:43.085Z,13.63
2023-08-21T02:04:44.910Z,13.45
2023-08-21T02:07:46.942Z,13.68
2023-08-21T02:10:53.007Z,13.38
2023-08-21T02:13:54.771Z,13.80
2023-08-21T02:16:56.518Z,13.48
2023-08-21T02:19:58.321Z,14.13
2023-08-21T02:23:00.173Z,12.93
2023-08-21T02:26:02.052Z,13.27
2023-08-21T02:29:05.211Z,12.93
2023-08-21T02:32:07.076Z,13.65
2023-08-21T02:35:09.513Z,12.63
2023-08-21T02:38:11.309Z,12.52
2023-08-21T02:41:14.272Z,13.05
2023-08-21T02:44:16.981Z,13.30
2023-08-21T02:47:18.738Z,12.25
2023-08-21T02:50:20.578Z,12.23
2023-08-21T02:53:22.415Z,11.98
2023-08-21T02:56:24.161Z,13.13
2023-08-21T02:59:25.977Z,12.85
2023-08-21T03:02:28.385Z,12.40
2023-08-21T03:05:30.289Z,13.15
2023-08-21T03:08:32.520Z,11.90
2023-08-21T03:11:34.391Z,12.70
2023-08-21T03:14:36.236Z,12.40
2023-08-21T03:17:38.106Z,11.73
2023-08-21T03:20:45.837Z,12.27
2023-08-21T03:23:47.537Z,12.40
2023-08-21T03:26:49.365Z,12.45
2023-08-21T03:29:51.315Z,12.07
2023-08-21T03:32:53.230Z,12.23
2023-08-21T03:35:56.144Z,11.67
2023-08-21T03:39:02.137Z,11.67
2023-08-21T03:42:04.299Z,11.90
2023-08-21T03:45:06.875Z,11.30
2023-08-21T03:48:08.800Z,11.75
2023-08-21T03:51:10.849Z,11.63
2023-08-21T03:54:12.660Z,11.57
2023-08-21T03:57:14.437Z,12.20
2023-08-21T04:00:16.350Z,11.50
2023-08-21T04:03:18.584Z,12.37
2023-08-21T04:06:20.617Z,11.53
2023-08-21T04:09:22.515Z,12.23
2023-08-21T04:12:24.256Z,12.10
2023-08-21T04:15:26.703Z,11.20
2023-08-21T04:18:40.046Z,11.60
2023-08-21T04:21:43.920Z,12.00
2023-08-21T04:24:45.773Z,11.17
2023-08-21T04:27:47.563Z,11.67
2023-08-21T04:30:49.309Z,10.87
2023-08-21T04:33:51.072Z,11.40
2023-08-21T04:36:53.737Z,12.60
2023-08-21T04:39:56.036Z,12.43
2023-08-21T04:42:57.853Z,12.57
2023-08-21T04:45:59.707Z,13.20
2023-08-21T04:49:01.590Z,12.63
2023-08-21T04:52:03.465Z,13.50
2023-08-21T04:55:05.790Z,13.27
2023-08-21T04:58:08.371Z,14.00
2023-08-21T05:01:10.642Z,12.97
2023-08-21T05:04:12.483Z,13.80
2023-08-21T05:07:14.311Z,14.83
2023-08-21T05:10:16.343Z,14.50
2023-08-21T05:13:19.020Z,14.43
2023-08-21T05:16:20.892Z,13.83
2023-08-21T05:19:22.726Z,13.73
2023-08-21T05:22:24.576Z,13.90
2023-08-21T05:25:26.392Z,14.53
2023-08-21T05:28:28.147Z,13.80
2023-08-21T05:31:30.154Z,13.20
2023-08-21T05:34:32.437Z,13.95
2023-08-21T05:37:34.275Z,12.98
2023-08-21T05:40:36.035Z,13.35
2023-08-21T05:43:37.820Z,14.10
2023-08-21T05:46:39.771Z,13.55
2023-08-21T05:49:41.797Z,13.50
2023-08-21T05:52:43.884Z,13.43
2023-08-21T05:55:45.925Z,13.38
2023-08-21T05:58:47.760Z,12.90
2023-08-21T06:01:49.777Z,13.88
2023-08-21T06:04:51.531Z,13.65
2023-08-21T06:07:53.402Z,13.05
2023-08-21T06:10:55.207Z,13.60
2023-08-21T06:13:56.962Z,11.90
2023-08-21T06:17:03.871Z,12.10
2023-08-21T06:20:07.104Z,11.52
2023-08-21T06:23:09.253Z,11.13
2023-08-21T06:26:11.105Z,11.23
2023-08-21T06:29:13.359Z,10.90
2023-08-21T06:32:15.218Z,10.65
2023-08-21T06:35:17.551Z,11.32
2023-08-21T06:38:19.361Z,11.63
2023-08-21T06:41:21.111Z,10.60
2023-08-21T06:44:22.898Z,15.75
2023-08-21T06:47:24.897Z,15.45
2023-08-21T06:50:27.311Z,16.33
2023-08-21T06:53:29.679Z,15.50
2023-08-21T06:56:31.530Z,14.80
2023-08-21T06:59:37.012Z,14.45
2023-08-21T07:02:39.411Z,14.95
2023-08-21T07:05:41.455Z,14.63
2023-08-21T07:08:44.329Z,14.65
2023-08-21T07:11:46.170Z,13.95
2023-08-21T07:14:47.988Z,13.80
2023-08-21T07:17:49.877Z,13.07
2023-08-21T07:20:54.649Z,13.70
2023-08-21T07:23:56.458Z,13.82
2023-08-21T07:26:58.696Z,13.40
2023-08-21T07:30:00.540Z,13.55
2023-08-21T07:33:02.352Z,12.75
2023-08-21T07:36:05.893Z,12.18
2023-08-21T07:39:07.774Z,11.40
2023-08-21T07:42:11.713Z,12.43
2023-08-21T07:45:13.563Z,11.43
2023-08-21T07:48:15.366Z,11.32
2023-08-21T07:51:17.312Z,11.32
2023-08-21T07:54:19.173Z,11.68
2023-08-21T07:57:21.213Z,10.80
2023-08-21T08:00:22.998Z,10.75
2023-08-21T08:03:24.853Z,11.05
2023-08-21T08:06:26.653Z,10.82
2023-08-21T08:09:28.461Z,10.65
2023-08-21T08:12:30.212Z,10.05
2023-08-21T08:15:32.060Z,10.10
2023-08-21T08:18:33.879Z,9.40
2023-08-21T08:21:35.682Z,8.98
2023-08-21T08:24:37.450Z,8.80
2023-08-21T08:27:39.222Z,9.70
2023-08-21T08:30:40.986Z,8.40
2023-08-21T08:33:42.786Z,8.77
2023-08-21T08:36:44.903Z,8.43
2023-08-21T08:39:49.932Z,7.85
2023-08-21T08:42:52.500Z,7.90
2023-08-21T08:45:57.629Z,7.15
2023-08-21T08:49:01.287Z,7.20
2023-08-21T08:52:03.513Z,6.55
2023-08-21T08:55:07.819Z,5.95
2023-08-21T08:58:09.568Z,6.53
2023-08-21T09:01:12.010Z,6.80
2023-08-21T09:04:13.922Z,6.68
2023-08-21T09:07:19.081Z,6.10
2023-08-21T09:10:20.911Z,6.70
2023-08-21T09:13:22.868Z,6.28
2023-08-21T09:16:26.562Z,6.47
2023-08-21T09:19:28.638Z,6.18
2023-08-21T09:22:30.918Z,5.55
2023-08-21T09:25:40.239Z,5.53
2023-08-21T09:28:42.054Z,5.70
2023-08-21T09:31:46.971Z,5.78
2023-08-21T09:34:48.881Z,5.95
2023-08-21T09:37:53.926Z,5.63
2023-08-21T09:40:56.722Z,5.95
2023-08-21T09:44:01.911Z,5.55
2023-08-21T09:47:04.803Z,5.53
2023-08-21T09:50:07.206Z,6.07
2023-08-21T09:53:09.393Z,5.75
2023-08-21T09:56:12.479Z,5.15
2023-08-21T09:59:15.247Z,5.22
2023-08-21T10:02:17.200Z,5.28
2023-08-21T10:05:19.729Z,5.45
2023-08-21T10:08:26.478Z,4.90
2023-08-21T10:11:29.537Z,5.60
2023-08-21T10:14:31.553Z,4.88
2023-08-21T10:17:33.514Z,5.13
2023-08-21T10:20:39.632Z,4.35
2023-08-21T10:23:45.957Z,4.28
2023-08-21T10:26:48.096Z,4.47
2023-08-21T10:29:59.232Z,4.75
2023-08-21T10:33:01.547Z,4.47
2023-08-21T10:36:03.380Z,4.30
2023-08-21T10:39:13.420Z,4.63
2023-08-21T10:42:15.543Z,3.95
2023-08-21T10:45:17.629Z,3.97
2023-08-21T10:48:19.513Z,4.30
2023-08-21T10:51:21.524Z,4.45
2023-08-21T10:54:23.268Z,4.10
2023-08-21T10:57:26.666Z,4.10
2023-08-21T11:00:28.691Z,4.43
2023-08-21T11:03:30.446Z,3.50
2023-08-21T11:06:32.590Z,3.80
2023-08-21T11:09:37.431Z,3.20
2023-08-21T11:12:39.930Z,2.97
2023-08-21T11:15:41.838Z,2.97
2023-08-21T11:18:43.653Z,2.80
2023-08-21T11:21:52.376Z,2.63
2023-08-21T11:24:54.813Z,3.20
2023-08-21T11:27:57.094Z,3.13
2023-08-21T11:31:00.154Z,3.13
2023-08-21T11:34:10.968Z,2.85
2023-08-21T11:37:22.210Z,3.30
2023-08-21T11:40:24.104Z,3.00
2023-08-21T11:43:39.801Z,2.20
2023-08-21T11:46:41.653Z,2.50
2023-08-21T11:49:45.270Z,2.45
2023-08-21T11:52:47.029Z,2.47
2023-08-21T11:55:48.925Z,2.60
2023-08-21T11:58:51.734Z,2.50
2023-08-21T12:01:53.863Z,2.55
2023-08-21T12:05:06.671Z,2.47
2023-08-21T12:08:08.928Z,2.42
2023-08-21T12:11:10.710Z,2.88
2023-08-21T12:14:12.484Z,2.60
2023-08-21T12:17:14.271Z,3.00
2023-08-21T12:20:16.077Z,3.00
2023-08-21T12:23:17.859Z,3.10
2023-08-21T12:26:22.466Z,2.88
2023-08-21T12:29:25.702Z,3.15
2023-08-21T12:32:27.564Z,2.95
2023-08-21T12:35:29.599Z,2.70
2023-08-21T12:38:31.384Z,2.85
2023-08-21T12:41:37.120Z,2.63
2023-08-21T12:44:39.832Z,2.53
2023-08-21T12:47:41.998Z,2.35
2023-08-21T12:50:43.929Z,2.40
2023-08-21T12:53:45.738Z,2.35
2023-08-21T12:56:47.553Z,2.90
2023-08-21T12:59:49.849Z,2.63
2023-08-21T13:02:51.906Z,3.00
2023-08-21T13:05:53.786Z,2.70
2023-08-21T13:08:55.563Z,2.88
2023-08-21T13:11:57.481Z,2.40
2023-08-21T13:15:00.380Z,2.40
2023-08-21T13:18:02.284Z,2.58
2023-08-21T13:21:04.413Z,2.60
2023-08-21T13:24:06.264Z,2.70
2023-08-21T13:27:08.038Z,2.45
2023-08-21T13:30:10.751Z,2.78
2023-08-21T13:33:12.563Z,2.50
2023-08-21T13:36:15.480Z,2.70
2023-08-21T13:39:17.370Z,2.90
2023-08-21T13:42:19.157Z,2.35
2023-08-21T13:45:24.034Z,2.90
2023-08-21T13:48:25.845Z,2.47
2023-08-21T13:51:27.762Z,2.50
2023-08-21T13:54:30.633Z,3.35
2023-08-21T13:57:33.746Z,3.10
2023-08-21T14:00:36.544Z,2.63
2023-08-21T14:03:38.456Z,2.17
2023-08-21T14:06:40.384Z,2.40
2023-08-21T14:09:42.227Z,3.08
2023-08-21T14:12:44.075Z,2.58
2023-08-21T14:15:46.226Z,2.80
2023-08-21T14:18:48.054Z,2.40
2023-08-21T14:21:49.797Z,2.40
2023-08-21T14:24:51.766Z,2.35
2023-08-21T14:27:53.820Z,2.00
2023-08-21T14:30:55.616Z,2.30
2023-08-21T14:33:57.529Z,2.33
2023-08-21T14:37:00.679Z,2.80
2023-08-21T14:40:07.696Z,2.38
2023-08-21T14:43:09.947Z,2.55
2023-08-21T14:46:12.571Z,2.08
2023-08-21T14:49:15.251Z,2.60
2023-08-21T14:52:17.155Z,2.65
2023-08-21T14:55:18.944Z,2.60
2023-08-21T14:58:20.693Z,2.35
2023-08-21T15:01:22.572Z,3.00
2023-08-21T15:04:24.461Z,3.00
2023-08-21T15:07:26.451Z,2.97
2023-08-21T15:10:28.975Z,2.80
2023-08-21T15:13:30.770Z,2.72
2023-08-21T15:16:32.744Z,2.90
2023-08-21T15:19:34.475Z,2.75
2023-08-21T15:22:36.278Z,3.22
2023-08-21T15:25:38.369Z,2.90
2023-08-21T15:28:40.153Z,2.90
2023-08-21T15:31:41.998Z,3.00
2023-08-21T15:34:43.858Z,8.80
2023-08-21T15:37:46.559Z,15.00
2023-08-21T15:40:48.377Z,9.63
2023-08-21T15:43:50.214Z,3.67
2023-08-21T15:47:01.481Z,3.05
2023-08-21T15:50:13.723Z,2.90
2023-08-21T15:53:15.827Z,3.25
2023-08-21T15:56:17.559Z,3.13
2023-08-21T15:59:19.345Z,3.22
2023-08-21T16:02:21.138Z,2.97
2023-08-21T16:05:23.831Z,2.88
2023-08-21T16:08:26.221Z,2.92
2023-08-21T16:11:27.973Z,3.00
2023-08-21T16:14:30.306Z,3.00
2023-08-21T16:17:32.396Z,3.47
2023-08-21T16:20:34.219Z,3.20
2023-08-21T16:23:36.078Z,3.28
2023-08-21T16:26:38.075Z,3.13
2023-08-21T16:29:39.871Z,2.75
2023-08-21T16:32:41.901Z,3.00
2023-08-21T16:35:43.969Z,3.15
2023-08-21T16:38:45.856Z,2.90
2023-08-21T16:41:47.644Z,3.00
2023-08-21T16:44:49.449Z,3.10
2023-08-21T16:47:51.532Z,3.10
2023-08-21T16:50:53.368Z,3.05
2023-08-21T16:53:55.661Z,3.17
2023-08-21T16:56:57.478Z,3.08
2023-08-21T16:59:59.278Z,3.10
2023-08-21T17:03:01.124Z,3.00
2023-08-21T17:06:03.226Z,3.10
2023-08-21T17:09:05.717Z,3.17
2023-08-21T17:12:07.736Z,3.20
2023-08-21T17:15:09.840Z,3.00
2023-08-21T17:18:11.779Z,2.95
2023-08-21T17:21:14.128Z,3.20
2023-08-21T17:24:16.026Z,2.63
2023-08-21T17:27:18.643Z,3.05
2023-08-21T17:30:20.594Z,3.10
2023-08-21T17:33:22.433Z,3.25
2023-08-21T17:36:26.122Z,3.30
2023-08-21T17:39:28.454Z,2.97
2023-08-21T17:42:30.262Z,2.80
2023-08-21T17:45:34.124Z,3.35
2023-08-21T17:48:36.236Z,2.90
2023-08-21T17:51:38.241Z,3.15
2023-08-21T17:54:40.018Z,3.35
2023-08-21T17:57:42.655Z,3.35
2023-08-21T18:00:44.903Z,3.03
2023-08-21T18:03:46.743Z,3.13
2023-08-21T18:06:48.686Z,3.10
2023-08-21T18:09:50.592Z,3.22
2023-08-21T18:12:52.426Z,3.45
2023-08-21T18:15:54.180Z,3.17
2023-08-21T18:18:55.949Z,3.30
2023-08-21T18:21:57.738Z,3.53
2023-08-21T18:24:59.517Z,3.50
2023-08-21T18:28:01.247Z,3.50
2023-08-21T18:31:03.917Z,3.60
2023-08-21T18:34:05.854Z,3.38
2023-08-21T18:37:09.311Z,3.35
2023-08-21T18:40:11.633Z,3.42
2023-08-21T18:43:13.611Z,3.75
2023-08-21T18:46:15.953Z,4.05
2023-08-21T18:49:17.902Z,4.18
2023-08-21T18:52:19.690Z,3.80
2023-08-21T18:55:21.537Z,3.70
2023-08-21T18:58:23.320Z,3.80
2023-08-21T19:01:25.133Z,3.78
2023-08-21T19:04:28.001Z,4.00
2023-08-21T19:07:29.821Z,4.20
2023-08-21T19:10:31.742Z,4.25
2023-08-21T19:13:34.823Z,4.60
2023-08-21T19:16:36.588Z,4.32
2023-08-21T19:19:38.329Z,4.10
2023-08-21T19:22:40.506Z,3.97
2023-08-21T19:25:42.440Z,4.00
2023-08-21T19:28:44.233Z,3.60
2023-08-21T19:31:46.107Z,4.00
2023-08-21T19:34:48.077Z,4.43
2023-08-21T19:37:49.842Z,4.28
2023-08-21T19:40:52.095Z,4.20
2023-08-21T19:43:53.887Z,3.90
2023-08-21T19:46:56.379Z,4.10
2023-08-21T19:49:58.348Z,4.07
2023-08-21T19:53:00.543Z,4.38
2023-08-21T19:56:04.675Z,3.78
2023-08-21T19:59:06.652Z,3.85
2023-08-21T20:02:08.636Z,3.95
2023-08-21T20:05:10.883Z,4.13
2023-08-21T20:08:12.803Z,4.10
2023-08-21T20:11:14.947Z,4.40
2023-08-21T20:14:18.108Z,4.10
2023-08-21T20:17:21.325Z,4.15
2023-08-21T20:20:26.433Z,4.32
2023-08-21T20:23:28.205Z,4.20
2023-08-21T20:26:32.497Z,4.68
2023-08-21T20:29:34.446Z,4.30
2023-08-21T20:32:36.218Z,4.53
2023-08-21T20:35:38.024Z,4.57
2023-08-21T20:38:39.820Z,4.50
2023-08-21T20:41:41.546Z,4.32
2023-08-21T20:44:44.661Z,4.95
2023-08-21T20:47:46.581Z,4.65
2023-08-21T20:50:48.364Z,4.22
2023-08-21T20:53:50.311Z,4.53
2023-08-21T20:56:52.079Z,4.60
2023-08-21T20:59:54.181Z,4.63
2023-08-21T21:02:56.228Z,4.85
2023-08-21T21:05:58.104Z,4.63
2023-08-21T21:08:59.925Z,4.45
2023-08-21T21:12:02.081Z,4.50
2023-08-21T21:15:04.973Z,4.65
2023-08-21T21:18:06.994Z,4.65
2023-08-21T21:21:08.804Z,4.38
2023-08-21T21:24:10.763Z,4.55
2023-08-21T21:27:12.538Z,4.75
2023-08-21T21:30:14.329Z,4.80
2023-08-21T21:33:16.098Z,4.80
2023-08-21T21:36:17.887Z,4.68
2023-08-21T21:39:19.725Z,4.38
2023-08-21T21:42:21.482Z,4.60
2023-08-21T21:45:23.332Z,4.35
2023-08-21T21:48:28.659Z,4.63
2023-08-21T21:51:30.485Z,4.82
2023-08-21T21:54:32.417Z,4.60
2023-08-21T21:57:34.198Z,4.72
2023-08-21T22:00:36.200Z,4.78
2023-08-21T22:03:39.441Z,4.85
2023-08-21T22:06:43.133Z,4.68
2023-08-21T22:09:45.878Z,4.82
2023-08-21T22:12:47.844Z,4.68
2023-08-21T22:15:49.863Z,4.50
2023-08-21T22:18:52.223Z,4.75
2023-08-21T22:21:54.011Z,5.03
2023-08-21T22:24:55.836Z,4.97
2023-08-21T22:27:57.876Z,4.78
2023-08-21T22:30:59.934Z,4.93
2023-08-21T22:34:01.714Z,5.07
2023-08-21T22:37:03.495Z,5.10
2023-08-21T22:40:06.371Z,4.93
2023-08-21T22:43:08.168Z,4.93
2023-08-21T22:46:09.964Z,5.15
2023-08-21T22:49:11.763Z,5.22
2023-08-21T22:52:13.945Z,5.18
2023-08-21T22:55:15.892Z,5.13
2023-08-21T22:58:17.664Z,4.65
2023-08-21T23:01:19.458Z,5.90
2023-08-21T23:04:21.365Z,5.20
2023-08-21T23:07:23.092Z,5.45
2023-08-21T23:10:24.911Z,5.50
2023-08-21T23:13:26.700Z,5.45
2023-08-21T23:16:28.909Z,5.45
2023-08-21T23:19:30.667Z,5.50
2023-08-21T23:22:32.417Z,5.25
2023-08-21T23:25:36.180Z,5.55
2023-08-21T23:28:38.050Z,5.57
2023-08-21T23:31:39.949Z,6.05
2023-08-21T23:34:41.868Z,5.93
2023-08-21T23:37:43.809Z,5.68
2023-08-21T23:40:45.732Z,5.65
2023-08-21T23:43:48.252Z,6.22
2023-08-21T23:46:50.076Z,6.30
2023-08-21T23:49:51.982Z,6.63
2023-08-21T23:52:53.873Z,5.85
2023-08-21T23:55:55.929Z,5.88
2023-08-21T23:58:58.700Z,6.43
